Wofford Heights, CA (93285)

3:39 AM PDT on April 28, 2017 (GMT -0700)
Alta Sierra | | Change Station
Active Advisory: Wind Advisory

Elev 5699 ft 35.73 °N, 118.54 °W | Updated 1 minute ago

Clear
Clear
42.1 °F
Feels Like 42 °F
N
1.6
Wind Variable Wind from North
Gusts 4.5 mph

Today
High -- | Low -- °F
--% Chance of Precip.
Yesterday
High -- | Low -- °F
Precip. -- in
Pressure 29.91 in
Visibility 10.0 miles
Clouds Clear
Windchill 42 °F
Dew Point 33 °F
Humidity 71%
Rainfall 0.00 in
Snow Depth Not available.
6:04 AM 7:38 PM
Waxing Crescent, 6% visible
METAR KTSP 281015Z AUTO 30025G33KT 10SM CLR 08/02 A2991 RMK AO2
Pressure 29.91 in
Visibility 10.0 miles
Clouds Clear
Windchill 42 °F
Dew Point 33 °F
Humidity 71%
Rainfall 0.00 in
Snow Depth Not available.
6:04 AM 7:38 PM
Waxing Crescent, 6% visible
METAR KTSP 281015Z AUTO 30025G33KT 10SM CLR 08/02 A2991 RMK AO2

Get Your Daily Forecast Email!

Thanks for signing up!

Be on the lookout for a verification email in your inbox.

You'll start receiving severe weather alerts in your inbox..

×

10-Day Weather Forecast

Almanac

Astronomy

Apr. 28, 2017 Rise Set
Actual Time
Civil Twilight
Nautical Twilight
Astronomical Twilight
Moon
Length of Visible Light
Length of Day
Tomorrow will be .
, % of the Moon is Illuminated

Today's Extremes

State Highs State Lows

Community

WunderPhotos

WunderBlog® & News

Nearby

Air Quality

  Air Quality AQ Index Pollutant
Not available.

Snow Depth

Station Depth Elevation

Earthquake Activity

City Distance Mag. Time & Date
Minimum magnitude displayed is 2.5.

Coastal Water Temperatures

Place Temperature

Stations

Nearby Weather Stations

Station Location Temp. Windchill Dew Point Humidity Wind Precip. Elev Updated Type
                   

Watches & Warnings

Wind Advisory
Issued: 7:45 PM PDT Apr. 27, 2017 – National Weather Service

... Wind Advisory remains in effect until 5 am PDT Friday...

* winds... northwest 20 to 30 mph with gusts up to 55 mph,
strongest over the ridges and through and below passes and
canyons.

* Timing... winds will remain gusty tonight into early Friday
morning.

* Impacts... travel will be difficult, especially for high
profile vehicles. Blowing dust may reduce visibility. Strong
winds may blow down limbs, trees, and power lines.

Precautionary/preparedness actions...

A Wind Advisory means that wind gusts of 45 mph or greater are
expected. Winds this strong can make driving difficult,
especially for high profile vehicles. Use extra caution.



Bso